Time;durP1;ratioP1;P1;durP2;ratioP2;P2;SDS_P1;SDS_P2;PMS_P1;PMS_P2;Temp;Humidity;BMP_temperature;BMP_pressure;BME280_temperature;BME280_humidity;BME280_pressure;Samples;Min_cycle;Max_cycle;Signal;HPM_P1;HPM_P2
2023/02/20 00:01:52;;;;;;;;;2.50;2.50;;;;;4.77;72.41;100198.84;6335030;20;1823314;-62
2023/02/20 00:04:21;;;;;;;;;3.75;2.25;;;;;4.69;72.62;100200.00;6336884;20;1821147;-61
2023/02/20 00:06:50;;;;;;;;;6.75;2.75;;;;;4.74;72.44;100200.69;6335048;20;1815106;-62
2023/02/20 00:09:18;;;;;;;;;12.50;6.50;;;;;4.71;72.32;100204.31;6316870;20;2762813;-62
2023/02/20 00:11:46;;;;;;;;;6.00;6.00;;;;;4.64;71.78;100208.09;6291063;20;2632727;-61
2023/02/20 00:14:14;;;;;;;;;10.00;6.00;;;;;4.69;70.21;100198.19;6316950;20;2760701;-62
2023/02/20 00:16:45;;;;;;;;;15.50;8.50;;;;;4.63;70.57;100206.34;6285557;20;2780544;-62
2023/02/20 00:19:14;;;;;;;;;3.00;3.00;;;;;4.62;70.95;100200.16;6300696;20;1819329;-61
2023/02/20 00:21:50;;;;;;;;;13.00;9.00;;;;;4.61;70.46;100203.75;6313795;20;2764950;-61
2023/02/20 00:24:19;;;;;;;;;9.00;9.00;;;;;4.70;70.30;100217.69;6284569;20;2748269;-61
2023/02/20 00:26:50;;;;;;;;;8.00;8.00;;;;;4.64;69.91;100215.22;6286781;20;2728442;-60
2023/02/20 00:29:22;;;;;;;;;5.00;5.00;;;;;4.63;69.84;100222.28;6335298;20;1818110;-62
2023/02/20 00:31:54;;;;;;;;;6.00;2.00;;;;;4.48;70.92;100236.91;6333376;20;1825325;-62
2023/02/20 00:34:27;;;;;;;;;6.00;6.00;;;;;4.52;70.54;100230.56;6333807;20;1821218;-61
2023/02/20 00:36:55;;;;;;;;;1.00;1.00;;;;;4.54;70.57;100239.38;6315338;20;3434651;-61
2023/02/20 00:39:23;;;;;;;;;5.00;3.00;;;;;4.37;71.27;100238.97;6335662;20;1820088;-62
2023/02/20 00:41:52;;;;;;;;;2.50;2.00;;;;;4.42;71.00;100245.03;6334512;20;1815930;-61
2023/02/20 00:44:21;;;;;;;;;2.00;2.00;;;;;4.44;70.39;100248.53;6332956;20;1820117;-47
2023/02/20 00:46:49;;;;;;;;;2.75;2.75;;;;;4.43;70.03;100244.13;6333263;20;1813727;-44
2023/02/20 00:49:18;;;;;;;;;2.50;2.50;;;;;4.47;69.36;100232.50;6333748;20;1818114;-44
2023/02/20 00:51:47;;;;;;;;;2.00;2.00;;;;;4.48;68.70;100233.38;6331766;20;1823377;-43
2023/02/20 00:54:16;;;;;;;;;4.00;2.25;;;;;4.50;69.05;100236.84;6335011;20;1819110;-46
2023/02/20 00:56:45;;;;;;;;;3.00;3.00;;;;;4.38;68.41;100227.44;6329999;20;1806541;-45
2023/02/20 00:59:13;;;;;;;;;3.00;2.75;;;;;4.37;68.05;100221.25;6332782;20;1823503;-46
2023/02/20 01:01:42;;;;;;;;;4.50;2.00;;;;;4.47;67.54;100219.19;6333459;20;1822244;-46
2023/02/20 01:04:11;;;;;;;;;6.50;3.50;;;;;4.38;68.39;100216.81;6333011;20;1821183;-45
2023/02/20 01:06:39;;;;;;;;;2.00;2.00;;;;;4.52;66.96;100219.06;6333919;20;1819148;-45
2023/02/20 01:09:08;;;;;;;;;3.00;3.00;;;;;4.52;66.00;100224.38;6332791;20;1823323;-48
2023/02/20 01:11:36;;;;;;;;;2.00;2.00;;;;;4.46;65.59;100230.75;6333983;20;1822368;-46
2023/02/20 01:14:05;;;;;;;;;3.00;3.00;;;;;4.47;65.71;100234.28;6332672;20;1825362;-44
2023/02/20 01:16:33;;;;;;;;;2.00;2.00;;;;;4.49;66.24;100240.44;6335248;20;1815625;-49
2023/02/20 01:19:02;;;;;;;;;3.00;3.00;;;;;4.49;65.88;100251.94;6335143;20;1819055;-45
2023/02/20 01:21:30;;;;;;;;;1.33;1.33;;;;;4.53;65.24;100253.63;6315778;20;3475420;-48
2023/02/20 01:23:58;;;;;;;;;2.25;2.25;;;;;4.56;65.29;100257.97;6330449;20;1825401;-47
2023/02/20 01:26:27;;;;;;;;;3.00;3.00;;;;;4.44;65.33;100264.47;6332643;20;1824359;-44
2023/02/20 01:28:56;;;;;;;;;3.00;3.00;;;;;4.52;64.88;100267.81;6333515;20;1811760;-45
2023/02/20 01:31:24;;;;;;;;;2.25;2.25;;;;;4.47;65.31;100280.34;6329418;20;1815604;-43
2023/02/20 01:33:53;;;;;;;;;2.00;2.00;;;;;4.44;64.32;100267.13;6332196;20;1815938;-47
2023/02/20 01:36:21;;;;;;;;;2.00;2.00;;;;;4.35;63.89;100283.34;6317140;20;3452401;-46
2023/02/20 01:38:49;;;;;;;;;1.33;1.33;;;;;4.49;64.42;100289.16;6316088;20;3451330;-45
2023/02/20 01:41:18;;;;;;;;;5.00;4.00;;;;;4.37;64.88;100292.13;6313933;20;2752477;-46
2023/02/20 01:43:47;;;;;;;;;3.00;3.00;;;;;4.30;66.05;100294.09;6300783;20;1813871;-44
2023/02/20 01:46:28;;;;;;;;;3.75;2.00;;;;;4.13;67.45;100291.88;6333307;20;1811830;-44
2023/02/20 01:49:10;;;;;;;;;4.00;2.00;;;;;4.08;67.96;100293.78;6315528;20;3456505;-43
2023/02/20 01:51:46;;;;;;;;;3.00;3.00;;;;;3.98;69.39;100286.97;6313450;20;3454447;-44
2023/02/20 01:54:21;;;;;;;;;3.75;3.75;;;;;3.83;70.02;100290.84;6337824;20;1812836;-45
2023/02/20 01:56:51;;;;;;;;;3.00;3.00;;;;;3.72;70.86;100291.13;6336181;20;1815595;-45
2023/02/20 01:59:22;;;;;;;;;7.25;4.00;;;;;3.72;71.69;100291.13;6336246;20;1819049;-44
2023/02/20 02:01:52;;;;;;;;;4.00;4.00;;;;;3.72;71.74;100291.13;6336721;20;1815022;-47
2023/02/20 02:04:21;;;;;;;;;5.75;4.00;;;;;3.74;72.11;100284.00;6339918;20;1819055;-44
2023/02/20 02:06:53;;;;;;;;;5.50;3.00;;;;;3.68;72.13;100284.13;6336152;20;1815340;-44
2023/02/20 02:09:50;;;;;;;;;5.50;3.00;;;;;3.52;73.11;100280.09;6335068;20;1816447;-44
2023/02/20 02:12:19;;;;;;;;;2.75;2.75;;;;;3.54;73.33;100272.09;6335012;20;1818217;-45
2023/02/20 02:14:47;;;;;;;;;4.00;3.00;;;;;3.61;72.39;100277.22;6320713;20;3463891;-45
2023/02/20 02:17:51;;;;;;;;;6.50;5.00;;;;;3.61;72.64;100263.94;6305385;20;1815981;-43
2023/02/20 02:20:58;;;;;;;;;3.00;3.00;;;;;3.55;73.32;100272.03;6319208;20;3446087;-44
2023/02/20 02:23:56;;;;;;;;;4.75;4.75;;;;;3.49;73.41;100282.81;6337189;20;1825462;-43
2023/02/20 02:27:30;;;;;;;;;7.00;5.50;;;;;3.61;72.57;100287.84;6336991;20;1823276;-44
2023/02/20 02:30:16;;;;;;;;;6.25;5.00;;;;;3.66;72.05;100285.06;6337678;20;1823296;-44
2023/02/20 02:33:43;;;;;;;;;4.75;4.75;;;;;3.59;71.72;100289.66;6334475;20;1823323;-49
2023/02/20 02:36:50;;;;;;;;;4.50;4.50;;;;;3.62;70.91;100300.19;6337172;20;1811801;-45
2023/02/20 02:40:09;;;;;;;;;5.75;5.50;;;;;3.68;70.89;100300.03;6335462;20;1825397;-47
2023/02/20 02:43:08;;;;;;;;;3.00;3.00;;;;;3.70;69.81;100300.91;6320491;20;3451319;-48
2023/02/20 02:46:14;;;;;;;;;7.00;4.00;;;;;3.66;70.31;100301.91;6334200;20;1823417;-45
2023/02/20 02:49:02;;;;;;;;;4.50;4.50;;;;;3.52;70.98;100317.25;6334982;20;1825478;-45
2023/02/20 02:51:38;;;;;;;;;7.25;5.00;;;;;3.54;71.00;100311.91;6331225;20;1821108;-44
2023/02/20 02:54:12;;;;;;;;;6.75;4.75;;;;;3.53;71.36;100321.66;6337183;20;1825474;-45
2023/02/20 02:56:47;;;;;;;;;7.00;5.50;;;;;3.38;71.69;100322.00;6335825;20;1823256;-44
2023/02/20 02:59:32;;;;;;;;;7.25;6.00;;;;;3.37;72.37;100331.75;6336100;20;1819610;-45
2023/02/20 03:02:06;;;;;;;;;7.00;5.00;;;;;3.39;71.90;100334.34;6316834;20;2754431;-44
2023/02/20 03:04:37;;;;;;;;;8.00;6.00;;;;;3.26;71.79;100329.31;6313431;20;2754465;-45
2023/02/20 03:07:18;;;;;;;;;4.75;4.75;;;;;3.27;72.20;100327.53;6304835;20;1818097;-44
2023/02/20 03:10:09;;;;;;;;;12.00;7.50;;;;;3.26;71.76;100329.31;6318321;20;2758654;-45
2023/02/20 03:12:42;;;;;;;;;8.00;7.00;;;;;3.35;70.97;100332.69;6316408;20;2734753;-46
2023/02/20 03:15:32;;;;;;;;;9.50;6.00;;;;;3.26;71.54;100323.13;6336465;20;1823183;-49
2023/02/20 03:18:38;;;;;;;;;6.25;5.75;;;;;3.21;72.09;100323.25;6334362;20;1823242;-46
2023/02/20 03:21:20;;;;;;;;;8.00;8.00;;;;;3.25;72.42;100318.75;6334662;20;1798338;-47
2023/02/20 03:23:58;;;;;;;;;7.50;6.00;;;;;3.04;73.54;100323.59;6319387;20;2748194;-46
2023/02/20 03:26:34;;;;;;;;;9.50;9.50;;;;;3.03;74.76;100326.28;6316244;20;2767130;-44
2023/02/20 03:29:29;;;;;;;;;9.67;7.33;;;;;2.99;75.51;100328.09;6309263;20;1831730;-44
2023/02/20 03:43:22;;;;;;;;;7.75;7.75;;;;;2.70;79.65;100314.56;6331793;20;1808726;-46
2023/02/20 03:46:05;;;;;;;;;8.50;8.50;;;;;2.73;79.66;100318.00;6316854;20;2734698;-44
2023/02/20 03:48:44;;;;;;;;;7.00;7.00;;;;;2.80;79.82;100319.66;6335103;20;1812881;-47
2023/02/20 03:54:00;;;;;;;;;9.50;9.50;;;;;2.74;81.22;100329.47;6281935;20;2766990;-45
2023/02/20 03:56:37;;;;;;;;;10.00;7.00;;;;;2.64;81.72;100329.69;6281908;20;3471102;-45
2023/02/20 03:59:25;;;;;;;;;6.00;6.00;;;;;2.68;82.29;100329.59;6302298;20;1809666;-45
2023/02/20 04:02:04;;;;;;;;;7.50;7.50;;;;;2.74;82.19;100338.34;6332629;20;1811951;-44
2023/02/20 04:04:45;;;;;;;;;6.00;5.00;;;;;2.80;82.57;100340.88;6332782;20;1818044;-44
2023/02/20 04:07:40;;;;;;;;;5.25;5.25;;;;;2.59;82.64;100341.28;6334445;20;1813358;-46
2023/02/20 04:10:19;;;;;;;;;8.50;7.00;;;;;2.67;83.39;100344.66;6335023;20;1812873;-45
2023/02/20 04:12:50;;;;;;;;;9.00;9.00;;;;;2.85;82.99;100357.56;6315532;20;2739004;-46
2023/02/20 04:15:23;;;;;;;;;10.33;7.00;;;;;2.74;83.20;100356.00;6355318;20;1804496;-44
2023/02/20 04:18:17;;;;;;;;;9.00;9.00;;;;;2.81;83.29;100360.28;6284786;20;2742983;-44
2023/02/20 04:20:54;;;;;;;;;18.50;10.50;;;;;2.74;83.80;100372.81;6312161;20;2802533;-44
2023/02/20 04:23:25;;;;;;;;;10.50;7.25;;;;;2.69;83.90;100363.19;6302967;20;1821309;-48
2023/02/20 04:26:07;;;;;;;;;10.25;7.25;;;;;2.87;83.43;100365.50;6332623;20;1816115;-42
2023/02/20 04:28:36;;;;;;;;;10.00;6.00;;;;;2.75;83.99;100358.63;6331706;20;1818094;-45
2023/02/20 04:31:04;;;;;;;;;13.50;10.00;;;;;2.66;84.87;100353.53;6311344;20;2781664;-47
2023/02/20 04:33:32;;;;;;;;;12.50;10.50;;;;;2.83;84.46;100361.16;6282114;20;2787807;-44
2023/02/20 04:36:01;;;;;;;;;12.00;10.00;;;;;2.70;84.86;100339.28;6283117;20;2773250;-43
2023/02/20 04:38:28;;;;;;;;;10.00;10.00;;;;;2.72;85.02;100336.63;6282993;20;2772220;-44
2023/02/20 04:40:56;;;;;;;;;11.00;10.00;;;;;2.69;85.40;100332.25;6278755;20;2778471;-43
2023/02/20 04:43:24;;;;;;;;;11.50;10.50;;;;;2.58;85.96;100326.25;6279289;20;2794080;-44
2023/02/20 04:45:55;;;;;;;;;10.80;10.00;;;;;2.52;86.79;100321.06;6324755;20;2490035;-44
2023/02/20 04:48:23;;;;;;;;;13.00;9.00;;;;;2.53;86.51;100325.50;6313898;20;2766028;-43
2023/02/20 04:50:52;;;;;;;;;15.75;10.75;;;;;2.58;86.42;100329.81;6299038;20;1819264;-45
2023/02/20 04:53:23;;;;;;;;;14.00;10.57;;;;;2.62;86.32;100310.25;6353666;20;1808702;-47
2023/02/20 04:55:51;;;;;;;;;11.50;10.00;;;;;2.56;87.00;100317.47;6314600;20;2772460;-45
2023/02/20 04:58:19;;;;;;;;;14.00;10.00;;;;;2.64;87.04;100316.41;6281240;20;2760709;-46
2023/02/20 05:00:49;;;;;;;;;16.40;15.00;;;;;2.72;87.06;100324.22;6305955;20;2825374;-48
2023/02/20 05:03:16;;;;;;;;;14.00;14.00;;;;;2.69;86.94;100332.25;6280688;20;2810821;-43
2023/02/20 05:05:46;;;;;;;;;15.80;12.60;;;;;2.53;87.87;100341.41;6306037;20;2807791;-47
2023/02/20 05:08:17;;;;;;;;;14.86;11.86;;;;;2.58;87.98;100350.09;6324050;20;1816976;-45
2023/02/20 05:10:47;;;;;;;;;15.60;12.20;;;;;2.73;87.79;100346.31;6338490;20;2811888;-48
2023/02/20 05:13:17;;;;;;;;;14.40;12.60;;;;;2.69;87.67;100345.50;6307681;20;2791980;-45
2023/02/20 05:15:46;;;;;;;;;18.00;11.80;;;;;2.56;88.83;100357.25;6307123;20;2818088;-59
2023/02/20 05:18:28;;;;;;;;;16.00;13.60;;;;;2.56;89.27;100359.88;6305050;20;2816987;-59
2023/02/20 05:23:47;;;;;;;;;14.00;14.00;;;;;2.57;89.44;100369.56;6281989;20;2789893;-59
2023/02/20 05:26:21;;;;;;;;;19.00;12.50;;;;;2.51;89.73;100375.00;6282707;20;2815910;-59
2023/02/20 05:28:49;;;;;;;;;15.00;15.00;;;;;2.62;89.98;100367.72;6278985;20;2816958;-59
2023/02/20 05:31:18;;;;;;;;;16.33;15.33;;;;;2.68;89.71;100364.94;6311868;20;3556581;-60
2023/02/20 05:33:46;;;;;;;;;14.00;12.00;;;;;2.59;89.90;100362.47;6320578;20;2686745;-60
2023/02/20 05:36:15;;;;;;;;;16.00;14.50;;;;;2.69;89.87;100360.53;6315764;20;2818162;-59
2023/02/20 05:38:46;;;;;;;;;19.00;15.00;;;;;2.76;89.21;100357.72;6280186;20;2795289;-59
2023/02/20 05:41:16;;;;;;;;;18.67;14.67;;;;;2.70;89.17;100365.78;6279301;20;3539878;-59
2023/02/20 05:43:47;;;;;;;;;16.40;14.20;;;;;2.79;88.83;100360.34;6334879;20;2813795;-59
2023/02/20 05:46:16;;;;;;;;;16.67;12.67;;;;;2.93;88.69;100364.50;6281516;20;2807655;-59
2023/02/20 05:48:49;;;;;;;;;23.00;19.00;;;;;2.72;89.33;100358.69;6313368;20;3557073;-59
2023/02/20 05:51:28;;;;;;;;;18.67;15.33;;;;;2.90;88.85;100367.19;6276999;20;3561744;-60
2023/02/20 05:53:56;;;;;;;;;15.67;15.00;;;;;2.59;89.54;100367.78;6308927;20;3550331;-59
2023/02/20 05:56:25;;;;;;;;;22.00;17.67;;;;;2.73;90.14;100379.00;6313087;20;3551456;-59
2023/02/20 05:58:54;;;;;;;;;14.67;14.67;;;;;2.92;89.84;100376.00;6312395;20;2809795;-60
2023/02/20 06:01:28;;;;;;;;;25.50;19.50;;;;;2.74;89.34;100364.84;6306056;20;2839868;-60
2023/02/20 06:04:00;;;;;;;;;18.33;16.67;;;;;2.88;89.12;100379.63;6279543;20;3552358;-60
2023/02/20 06:06:39;;;;;;;;;16.00;12.00;;;;;2.86;88.98;100383.16;6314133;20;2795083;-60
2023/02/20 06:09:11;;;;;;;;;18.67;18.33;;;;;3.04;88.53;100391.69;6279289;20;3557706;-58
2023/02/20 06:11:39;;;;;;;;;19.00;15.00;;;;;2.96;88.37;100393.63;6311282;20;2816947;-60
2023/02/20 06:14:08;;;;;;;;;20.50;17.50;;;;;2.85;88.74;100400.00;6280027;20;3432546;-60
2023/02/20 06:16:36;;;;;;;;;18.33;16.00;;;;;3.01;88.70;100402.34;6312486;20;3553391;-60
2023/02/20 06:19:05;;;;;;;;;13.33;13.33;;;;;3.18;87.65;100409.97;6313227;20;2804618;-60
2023/02/20 06:21:34;;;;;;;;;19.00;15.00;;;;;3.07;87.56;100403.09;6313307;20;2821181;-60
2023/02/20 06:24:03;;;;;;;;;20.00;16.33;;;;;3.28;87.45;100404.47;6281104;20;3567085;-60
2023/02/20 06:26:31;;;;;;;;;21.00;17.00;;;;;3.25;86.39;100404.53;6312928;20;2814988;-57
2023/02/20 06:28:59;;;;;;;;;16.50;12.00;;;;;3.52;85.69;100404.84;6282878;20;2823211;-60
2023/02/20 06:31:28;;;;;;;;;24.00;13.67;;;;;3.56;85.40;100397.72;6277899;20;3585706;-60
2023/02/20 06:33:56;;;;;;;;;15.67;13.00;;;;;3.86;84.46;100399.69;6280146;20;3534677;-60
2023/02/20 06:36:30;;;;;;;;;14.33;14.33;;;;;3.78;83.31;100406.94;6309980;20;3534688;-60
2023/02/20 06:39:00;;;;;;;;;27.00;17.00;;;;;3.71;83.96;100405.31;6313908;20;3568999;-60
2023/02/20 06:41:28;;;;;;;;;22.67;18.00;;;;;3.85;84.16;100402.38;6282407;20;3556629;-60
2023/02/20 06:43:57;;;;;;;;;19.33;17.33;;;;;3.83;83.47;100415.69;6318512;20;3549217;-60
2023/02/20 06:46:25;;;;;;;;;18.00;16.00;;;;;3.89;83.86;100415.53;6318056;20;2824306;-60
2023/02/20 06:48:57;;;;;;;;;14.50;14.50;;;;;4.11;82.66;100404.44;6287462;20;3433080;-60
2023/02/20 06:51:31;;;;;;;;;23.00;18.00;;;;;4.35;81.74;100406.50;6314027;20;2498174;-60
2023/02/20 06:54:02;;;;;;;;;22.33;17.00;;;;;4.17;80.68;100405.16;6287714;20;3560680;-60
2023/02/20 06:56:33;;;;;;;;;18.00;15.50;;;;;4.41;80.27;100408.13;6285655;20;2818106;-60
2023/02/20 06:59:05;;;;;;;;;13.00;12.00;;;;;4.74;78.94;100408.19;6285714;20;3520149;-60
2023/02/20 07:01:41;;;;;;;;;19.00;15.67;;;;;4.81;79.23;100407.97;6316833;20;3532804;-60
2023/02/20 07:04:25;;;;;;;;;15.00;15.00;;;;;4.75;79.29;100399.31;6316833;20;3532670;-60
2023/02/20 07:06:55;;;;;;;;;19.00;13.00;;;;;4.58;79.84;100413.91;6315287;20;2823450;-60
2023/02/20 07:09:24;;;;;;;;;20.67;17.00;;;;;4.49;80.64;100411.47;6285091;20;3545107;-60
2023/02/20 07:11:53;;;;;;;;;20.33;15.00;;;;;4.41;79.70;100413.44;6312264;20;3546090;-60
2023/02/20 07:14:22;;;;;;;;;14.00;13.00;;;;;4.29;79.56;100408.44;6315338;20;2788919;-60
2023/02/20 07:16:50;;;;;;;;;17.00;12.00;;;;;4.60;79.73;100412.06;6285191;20;2800272;-60
2023/02/20 07:19:19;;;;;;;;;15.40;12.80;;;;;4.58;79.23;100405.03;6311449;20;2800381;-60
2023/02/20 07:21:49;;;;;;;;;13.40;11.00;;;;;4.66;78.69;100405.75;6313642;20;2794152;-60
2023/02/20 07:24:17;;;;;;;;;13.50;13.50;;;;;4.49;78.38;100400.84;6285284;20;2808606;-60
2023/02/20 07:26:46;;;;;;;;;14.50;11.00;;;;;5.01;77.63;100394.16;6285109;20;2796278;-60
2023/02/20 07:29:17;;;;;;;;;13.43;12.14;;;;;5.05;77.52;100397.59;6326685;20;1823227;-60
2023/02/20 07:31:46;;;;;;;;;17.67;14.33;;;;;5.14;77.32;100409.78;6320483;20;3552363;-60
2023/02/20 07:34:13;;;;;;;;;17.50;13.00;;;;;5.15;76.09;100416.84;6321286;20;2803440;-60
2023/02/20 07:36:41;;;;;;;;;12.50;10.50;;;;;4.95;77.46;100404.06;6286669;20;2789959;-60
2023/02/20 07:39:12;;;;;;;;;17.00;12.33;;;;;4.97;76.32;100413.78;6284470;20;3550398;-59
2023/02/20 07:41:40;;;;;;;;;17.00;14.00;;;;;5.00;77.18;100413.72;6316387;20;2811754;-60
2023/02/20 07:44:08;;;;;;;;;15.00;14.00;;;;;5.45;76.64;100410.69;6290214;20;2807598;-60
2023/02/20 07:46:36;;;;;;;;;18.00;12.00;;;;;5.60;75.10;100429.78;6287747;20;2798198;-60
2023/02/20 07:49:05;;;;;;;;;20.33;15.67;;;;;5.48;75.93;100420.38;6286834;20;3564880;-60
2023/02/20 07:51:34;;;;;;;;;17.33;16.00;;;;;5.38;75.60;100425.06;6314803;20;3546126;-60
2023/02/20 07:54:03;;;;;;;;;15.00;13.50;;;;;5.28;76.03;100423.59;6319153;20;2807588;-58
2023/02/20 07:56:32;;;;;;;;;14.67;14.00;;;;;5.46;75.31;100423.06;6282343;20;2791920;-58
2023/02/20 07:59:00;;;;;;;;;14.50;13.00;;;;;5.70;75.00;100425.94;6314943;20;2791989;-58
2023/02/20 08:01:28;;;;;;;;;13.00;13.00;;;;;5.63;74.96;100427.88;6283621;20;3538922;-59
2023/02/20 08:03:56;;;;;;;;;11.00;10.00;;;;;5.55;74.47;100421.03;6316922;20;2782602;-58
2023/02/20 08:06:27;;;;;;;;;12.00;11.00;;;;;5.78;75.04;100410.59;6308424;20;2793065;-58
2023/02/20 08:08:55;;;;;;;;;13.00;13.00;;;;;5.82;75.40;100403.34;6289000;20;2791042;-59
2023/02/20 08:11:24;;;;;;;;;15.67;11.00;;;;;5.99;74.92;100400.22;6282273;20;2796150;-58
2023/02/20 08:13:54;;;;;;;;;16.67;10.00;;;;;6.23;74.35;100415.44;6316137;20;3529415;-59
2023/02/20 08:16:22;;;;;;;;;12.00;9.00;;;;;6.97;71.52;100411.16;6315597;20;2777383;-56
2023/02/20 08:18:50;;;;;;;;;12.00;8.00;;;;;7.54;69.70;100419.81;6287086;20;2769019;-60
2023/02/20 08:21:18;;;;;;;;;8.50;5.00;;;;;7.08;69.93;100420.59;6283053;20;2748224;-59
2023/02/20 08:23:48;;;;;;;;;8.75;7.75;;;;;7.25;69.56;100413.72;6301647;20;1813984;-59
2023/02/20 08:26:17;;;;;;;;;8.00;8.00;;;;;7.25;68.08;100419.06;6336002;20;1810845;-59
2023/02/20 08:28:48;;;;;;;;;10.00;8.00;;;;;7.12;70.08;100417.78;6318794;20;2758676;-59
2023/02/20 08:31:16;;;;;;;;;11.50;10.00;;;;;7.31;69.55;100417.09;6282924;20;2776319;-59
2023/02/20 08:34:00;;;;;;;;;8.00;8.00;;;;;7.11;69.27;100421.38;6303267;20;1817060;-59
2023/02/20 08:36:28;;;;;;;;;11.00;9.00;;;;;6.98;70.22;100417.41;6312945;20;2750348;-59
2023/02/20 08:38:56;;;;;;;;;10.00;8.00;;;;;7.17;69.39;100423.81;6284064;20;2752395;-59
2023/02/20 08:41:25;;;;;;;;;9.00;9.00;;;;;7.37;68.47;100411.53;6300742;20;1808135;-59
2023/02/20 08:43:53;;;;;;;;;13.67;11.00;;;;;7.37;68.95;100406.19;6313338;20;2787768;-59
2023/02/20 08:46:24;;;;;;;;;8.17;8.17;;;;;7.15;68.50;100396.28;6358671;20;1794049;-59
2023/02/20 08:48:53;;;;;;;;;11.00;9.40;;;;;7.52;68.09;100397.59;6311029;20;2780541;-59
2023/02/20 08:51:25;;;;;;;;;11.00;9.00;;;;;8.26;66.40;100394.72;6322805;20;1810786;-59
2023/02/20 08:53:54;;;;;;;;;9.60;7.80;;;;;8.60;64.95;100393.38;6342330;20;2753541;-59
2023/02/20 08:56:22;;;;;;;;;8.50;7.50;;;;;8.52;64.57;100388.34;6315761;20;2734787;-59
2023/02/20 08:58:50;;;;;;;;;8.00;8.00;;;;;8.40;64.99;100384.38;6286997;20;2746112;-58
2023/02/20 09:01:18;;;;;;;;;6.00;6.00;;;;;8.18;66.28;100378.13;6285821;20;2738826;-58
2023/02/20 09:03:48;;;;;;;;;5.50;5.50;;;;;8.49;66.52;100389.34;6333272;20;1817111;-59
2023/02/20 09:06:15;;;;;;;;;6.50;5.50;;;;;8.52;66.16;100377.63;6318095;20;2745217;-59
2023/02/20 09:08:43;;;;;;;;;6.00;5.00;;;;;8.22;66.48;100366.38;6282642;20;2750286;-59
2023/02/20 09:11:13;;;;;;;;;37.67;30.67;;;;;8.23;67.44;100371.66;6274126;20;2864931;-59
2023/02/20 09:13:47;;;;;;;;;12.33;12.00;;;;;8.70;66.67;100367.97;6313924;20;3511735;-59
2023/02/20 09:16:20;;;;;;;;;8.00;6.00;;;;;9.10;66.19;100363.53;6313455;20;2734635;-59
2023/02/20 09:18:49;;;;;;;;;14.50;13.00;;;;;8.89;66.77;100371.56;6281744;20;2788827;-59
2023/02/20 09:21:19;;;;;;;;;5.00;5.00;;;;;8.92;67.27;100355.38;6286366;20;2743120;-59
2023/02/20 09:23:48;;;;;;;;;11.60;8.60;;;;;9.38;66.71;100353.31;6306684;20;2769181;-59
2023/02/20 09:26:17;;;;;;;;;6.50;6.50;;;;;9.29;67.88;100364.44;6302858;20;1803503;-59
2023/02/20 09:28:44;;;;;;;;;9.00;5.00;;;;;9.47;68.02;100365.41;6316865;20;2747150;-58
2023/02/20 09:31:12;;;;;;;;;4.00;4.00;;;;;9.50;68.62;100369.75;6283556;20;2752467;-59
2023/02/20 09:33:45;;;;;;;;;3.00;3.00;;;;;9.20;69.71;100357.69;6285684;20;2738850;-59
2023/02/20 09:36:19;;;;;;;;;4.40;4.40;;;;;9.45;69.59;100354.78;6336595;20;2742972;-59
2023/02/20 09:38:47;;;;;;;;;5.50;5.50;;;;;8.66;71.91;100350.28;6316863;20;2750305;-59
2023/02/20 09:42:13;;;;;;;;;4.00;4.00;;;;;9.09;72.62;100343.91;6285151;20;2754606;-59
2023/02/20 09:45:22;;;;;;;;;6.00;6.00;;;;;8.91;71.92;100345.59;6288068;20;2747129;-60
2023/02/20 09:48:30;;;;;;;;;11.00;8.00;;;;;9.12;71.44;100340.22;6281550;20;2765974;-58
2023/02/20 09:51:17;;;;;;;;;8.00;8.00;;;;;9.23;70.52;100354.88;6278324;20;2748263;-59
2023/02/20 09:54:30;;;;;;;;;9.50;6.50;;;;;9.29;69.95;100340.31;6280207;20;2750384;-59
2023/02/20 09:57:12;;;;;;;;;9.00;7.00;;;;;9.31;69.64;100345.63;6282466;20;2743107;-59
2023/02/20 09:59:52;;;;;;;;;7.00;6.00;;;;;9.46;69.79;100350.28;6312566;20;2737839;-59
2023/02/20 10:02:56;;;;;;;;;8.25;8.25;;;;;9.89;68.07;100342.88;6296305;20;1796150;-58
2023/02/20 10:05:28;;;;;;;;;10.00;7.00;;;;;10.69;65.39;100333.56;6311006;20;2759640;-60
2023/02/20 10:08:22;;;;;;;;;9.00;8.00;;;;;11.03;63.56;100335.34;6280584;20;2745150;-60
2023/02/20 10:11:02;;;;;;;;;9.00;9.00;;;;;10.77;63.90;100339.41;6271599;20;2741960;-60
2023/02/20 10:14:06;;;;;;;;;11.60;10.40;;;;;11.71;63.38;100339.75;6307148;20;2787207;-60
2023/02/20 10:17:14;;;;;;;;;10.60;10.00;;;;;10.48;64.35;100335.56;6308889;20;2794050;-60
2023/02/20 10:20:11;;;;;;;;;9.80;9.40;;;;;10.20;65.27;100346.75;6309022;20;2785701;-60
2023/02/20 10:23:34;;;;;;;;;9.00;8.00;;;;;10.22;66.99;100345.75;6284110;20;2747334;-60
2023/02/20 10:26:39;;;;;;;;;11.00;11.00;;;;;9.93;66.68;100344.47;6286404;20;2786745;-60
2023/02/20 10:29:39;;;;;;;;;15.00;11.67;;;;;10.33;66.58;100340.72;6285480;20;3518037;-60
2023/02/20 10:32:44;;;;;;;;;13.00;11.00;;;;;10.29;67.00;100331.09;6315127;20;2785740;-60
2023/02/20 10:36:15;;;;;;;;;14.00;12.00;;;;;9.98;67.68;100320.09;6282923;20;2787865;-60
2023/02/20 10:39:15;;;;;;;;;15.00;13.00;;;;;10.45;68.72;100315.09;6312706;20;2788920;-60
2023/02/20 10:42:22;;;;;;;;;12.00;8.00;;;;;10.15;70.94;100312.09;6314421;20;2760718;-59
2023/02/20 10:45:55;;;;;;;;;12.67;11.00;;;;;9.53;73.52;100316.00;6282557;20;2790954;-61
2023/02/20 10:48:44;;;;;;;;;13.00;11.50;;;;;9.73;73.54;100302.53;6314701;20;2790950;-60
2023/02/20 10:51:45;;;;;;;;;15.00;11.80;;;;;9.86;73.49;100286.72;6303987;20;2789862;-60
2023/02/20 10:55:08;;;;;;;;;11.80;11.40;;;;;9.77;74.02;100287.13;6307557;20;2794089;-59
2023/02/20 10:58:09;;;;;;;;;16.50;12.50;;;;;9.44;75.66;100296.72;6281151;20;2793291;-60
2023/02/20 11:01:13;;;;;;;;;12.00;12.00;;;;;9.78;74.10;100273.66;6302476;20;2810835;-60
2023/02/20 11:04:24;;;;;;;;;15.00;12.00;;;;;9.81;74.97;100278.00;6317596;20;2802328;-60
2023/02/20 11:07:18;;;;;;;;;14.00;12.33;;;;;10.24;73.19;100268.72;6282841;20;3513824;-60
2023/02/20 11:10:06;;;;;;;;;13.00;13.00;;;;;10.42;73.19;100264.22;6314273;20;2792069;-60
2023/02/20 11:12:47;;;;;;;;;12.00;12.00;;;;;10.15;73.74;100261.09;6283124;20;2794019;-60
2023/02/20 11:15:24;;;;;;;;;13.67;12.00;;;;;10.13;72.87;100249.56;6284122;20;3522116;-60
2023/02/20 11:17:58;;;;;;;;;18.67;16.00;;;;;9.93;74.91;100244.38;6311724;20;3556511;-60
2023/02/20 11:20:31;;;;;;;;;15.00;14.00;;;;;10.30;73.73;100233.53;6286234;20;2798206;-60
2023/02/20 11:23:02;;;;;;;;;15.67;15.00;;;;;10.20;73.15;100232.22;6284914;20;3532682;-60
2023/02/20 11:25:34;;;;;;;;;18.33;16.67;;;;;10.46;73.17;100219.31;6311784;20;3558635;-60
2023/02/20 11:28:10;;;;;;;;;10.00;10.00;;;;;11.09;71.19;100224.84;6283916;20;3520039;-60
2023/02/20 11:30:44;;;;;;;;;18.00;15.33;;;;;10.83;71.84;100211.97;6312980;20;3548153;-60
2023/02/20 11:33:23;;;;;;;;;18.00;13.67;;;;;11.08;71.05;100206.13;6283201;20;3534648;-60
2023/02/20 11:36:26;;;;;;;;;13.50;11.00;;;;;10.92;71.21;100200.72;6314128;20;2798211;-60
2023/02/20 11:39:27;;;;;;;;;11.00;11.00;;;;;10.93;70.40;100186.34;6283218;20;2781580;-60
2023/02/20 11:42:18;;;;;;;;;14.00;11.50;;;;;11.32;70.02;100198.50;6285729;20;2789030;-60
2023/02/20 11:45:22;;;;;;;;;14.40;12.20;;;;;10.96;70.41;100191.56;6308141;20;2783769;-60
2023/02/20 11:48:20;;;;;;;;;11.00;11.00;;;;;11.22;70.24;100184.72;6283896;20;2796093;-60
2023/02/20 11:51:09;;;;;;;;;15.00;13.00;;;;;11.25;70.25;100187.25;6317050;20;2809739;-60
2023/02/20 11:53:38;;;;;;;;;17.00;13.67;;;;;12.05;67.23;100179.94;6282611;20;3535800;-60
2023/02/20 11:56:18;;;;;;;;;14.00;11.00;;;;;11.86;67.36;100166.72;6311990;20;2794161;-60
2023/02/20 11:58:47;;;;;;;;;11.00;11.00;;;;;11.40;68.82;100167.56;6281877;20;2791016;-60
2023/02/20 12:01:31;;;;;;;;;12.00;10.67;;;;;11.36;69.61;100165.13;6314936;20;2792024;-60
2023/02/20 12:04:00;;;;;;;;;24.00;24.00;;;;;10.98;70.27;100170.84;6316206;20;2848205;-60
2023/02/20 12:06:35;;;;;;;;;12.00;10.00;;;;;10.90;70.77;100157.84;6288129;20;2777501;-60
2023/02/20 12:09:14;;;;;;;;;12.60;10.00;;;;;11.08;71.67;100147.84;6308723;20;2806645;-60